sensor_id;sensor_type;location;lat;lon;timestamp;P1;durP1;ratioP1;P2;durP2;ratioP2
21876;SDS011;11103;43.788;23.710;2023-04-24T00:00:15;11.57;;;8.70;;
21876;SDS011;11103;43.788;23.710;2023-04-24T00:02:43;11.30;;;8.63;;
21876;SDS011;11103;43.788;23.710;2023-04-24T00:05:13;12.90;;;9.13;;
21876;SDS011;11103;43.788;23.710;2023-04-24T00:07:39;11.73;;;9.27;;
21876;SDS011;11103;43.788;23.710;2023-04-24T00:10:09;14.30;;;9.77;;
21876;SDS011;11103;43.788;23.710;2023-04-24T00:12:35;11.87;;;9.40;;
21876;SDS011;11103;43.788;23.710;2023-04-24T00:15:01;13.47;;;9.63;;
21876;SDS011;11103;43.788;23.710;2023-04-24T00:17:28;11.87;;;9.27;;
21876;SDS011;11103;43.788;23.710;2023-04-24T00:19:53;14.93;;;10.23;;
21876;SDS011;11103;43.788;23.710;2023-04-24T00:22:26;34.63;;;26.83;;
21876;SDS011;11103;43.788;23.710;2023-04-24T00:24:53;43.47;;;32.77;;
21876;SDS011;11103;43.788;23.710;2023-04-24T00:27:19;69.13;;;53.50;;
21876;SDS011;11103;43.788;23.710;2023-04-24T00:29:44;35.77;;;27.83;;
21876;SDS011;11103;43.788;23.710;2023-04-24T00:32:10;26.63;;;21.87;;
21876;SDS011;11103;43.788;23.710;2023-04-24T00:34:36;27.10;;;23.07;;
21876;SDS011;11103;43.788;23.710;2023-04-24T00:37:01;18.43;;;11.77;;
21876;SDS011;11103;43.788;23.710;2023-04-24T00:39:27;17.80;;;11.77;;
21876;SDS011;11103;43.788;23.710;2023-04-24T00:41:52;13.23;;;9.97;;
21876;SDS011;11103;43.788;23.710;2023-04-24T00:44:19;14.57;;;10.43;;
21876;SDS011;11103;43.788;23.710;2023-04-24T00:46:45;13.03;;;10.90;;
21876;SDS011;11103;43.788;23.710;2023-04-24T00:49:12;16.47;;;10.43;;
21876;SDS011;11103;43.788;23.710;2023-04-24T00:51:38;13.67;;;10.43;;
21876;SDS011;11103;43.788;23.710;2023-04-24T00:54:05;14.70;;;10.47;;
21876;SDS011;11103;43.788;23.710;2023-04-24T00:56:31;15.60;;;10.53;;
21876;SDS011;11103;43.788;23.710;2023-04-24T00:58:56;14.83;;;10.87;;
21876;SDS011;11103;43.788;23.710;2023-04-24T01:01:23;13.07;;;10.43;;
21876;SDS011;11103;43.788;23.710;2023-04-24T01:03:51;13.77;;;10.63;;
21876;SDS011;11103;43.788;23.710;2023-04-24T01:06:18;14.43;;;11.63;;
21876;SDS011;11103;43.788;23.710;2023-04-24T01:08:45;15.17;;;10.57;;
21876;SDS011;11103;43.788;23.710;2023-04-24T01:11:11;15.87;;;10.50;;
21876;SDS011;11103;43.788;23.710;2023-04-24T01:13:37;18.87;;;10.40;;
21876;SDS011;11103;43.788;23.710;2023-04-24T01:16:02;14.40;;;10.33;;
21876;SDS011;11103;43.788;23.710;2023-04-24T01:18:28;13.57;;;10.60;;
21876;SDS011;11103;43.788;23.710;2023-04-24T01:20:54;14.73;;;10.40;;
21876;SDS011;11103;43.788;23.710;2023-04-24T01:23:22;13.23;;;10.77;;
21876;SDS011;11103;43.788;23.710;2023-04-24T01:25:49;11.57;;;10.33;;
21876;SDS011;11103;43.788;23.710;2023-04-24T01:28:15;14.50;;;10.33;;
21876;SDS011;11103;43.788;23.710;2023-04-24T01:30:41;15.57;;;10.83;;
21876;SDS011;11103;43.788;23.710;2023-04-24T01:33:08;14.70;;;11.60;;
21876;SDS011;11103;43.788;23.710;2023-04-24T01:35:33;15.63;;;12.03;;
21876;SDS011;11103;43.788;23.710;2023-04-24T01:38:01;17.33;;;11.87;;
21876;SDS011;11103;43.788;23.710;2023-04-24T01:40:26;17.07;;;11.33;;
21876;SDS011;11103;43.788;23.710;2023-04-24T01:42:52;14.97;;;11.13;;
21876;SDS011;11103;43.788;23.710;2023-04-24T01:45:17;16.33;;;10.67;;
21876;SDS011;11103;43.788;23.710;2023-04-24T01:47:43;14.07;;;11.20;;
21876;SDS011;11103;43.788;23.710;2023-04-24T01:50:09;17.97;;;11.17;;
21876;SDS011;11103;43.788;23.710;2023-04-24T01:52:35;13.70;;;11.53;;
21876;SDS011;11103;43.788;23.710;2023-04-24T01:55:01;14.00;;;11.10;;
21876;SDS011;11103;43.788;23.710;2023-04-24T01:57:27;13.33;;;11.27;;
21876;SDS011;11103;43.788;23.710;2023-04-24T01:59:55;15.13;;;11.83;;
21876;SDS011;11103;43.788;23.710;2023-04-24T02:02:21;15.63;;;12.37;;
21876;SDS011;11103;43.788;23.710;2023-04-24T02:04:48;18.53;;;11.80;;
21876;SDS011;11103;43.788;23.710;2023-04-24T02:07:14;15.33;;;11.37;;
21876;SDS011;11103;43.788;23.710;2023-04-24T02:09:39;17.20;;;12.20;;
21876;SDS011;11103;43.788;23.710;2023-04-24T02:12:05;15.00;;;11.83;;
21876;SDS011;11103;43.788;23.710;2023-04-24T02:14:30;14.67;;;11.63;;
21876;SDS011;11103;43.788;23.710;2023-04-24T02:16:56;19.13;;;12.23;;
21876;SDS011;11103;43.788;23.710;2023-04-24T02:19:21;15.40;;;12.50;;
21876;SDS011;11103;43.788;23.710;2023-04-24T02:21:47;18.13;;;11.90;;
21876;SDS011;11103;43.788;23.710;2023-04-24T02:24:12;15.50;;;12.03;;
21876;SDS011;11103;43.788;23.710;2023-04-24T02:26:37;18.13;;;12.23;;
21876;SDS011;11103;43.788;23.710;2023-04-24T02:29:03;19.03;;;12.67;;
21876;SDS011;11103;43.788;23.710;2023-04-24T02:31:28;17.97;;;12.70;;
21876;SDS011;11103;43.788;23.710;2023-04-24T02:33:54;17.60;;;12.43;;
21876;SDS011;11103;43.788;23.710;2023-04-24T02:36:19;16.67;;;11.93;;
21876;SDS011;11103;43.788;23.710;2023-04-24T02:38:45;16.57;;;13.03;;
21876;SDS011;11103;43.788;23.710;2023-04-24T02:41:10;16.47;;;12.37;;
21876;SDS011;11103;43.788;23.710;2023-04-24T02:43:36;15.77;;;13.00;;
21876;SDS011;11103;43.788;23.710;2023-04-24T02:46:01;15.90;;;12.93;;
21876;SDS011;11103;43.788;23.710;2023-04-24T02:48:26;19.33;;;12.97;;
21876;SDS011;11103;43.788;23.710;2023-04-24T02:50:52;16.63;;;12.17;;
21876;SDS011;11103;43.788;23.710;2023-04-24T02:53:18;18.50;;;13.37;;
21876;SDS011;11103;43.788;23.710;2023-04-24T02:55:43;20.13;;;13.40;;
21876;SDS011;11103;43.788;23.710;2023-04-24T02:58:08;15.97;;;13.23;;
21876;SDS011;11103;43.788;23.710;2023-04-24T03:00:35;18.23;;;13.53;;
21876;SDS011;11103;43.788;23.710;2023-04-24T03:03:00;19.30;;;13.50;;
21876;SDS011;11103;43.788;23.710;2023-04-24T03:05:26;19.63;;;12.90;;
21876;SDS011;11103;43.788;23.710;2023-04-24T03:07:52;19.03;;;13.17;;
21876;SDS011;11103;43.788;23.710;2023-04-24T03:10:17;22.60;;;14.20;;
21876;SDS011;11103;43.788;23.710;2023-04-24T03:12:43;17.50;;;13.47;;
21876;SDS011;11103;43.788;23.710;2023-04-24T03:15:09;19.57;;;14.23;;
21876;SDS011;11103;43.788;23.710;2023-04-24T03:17:34;20.97;;;14.33;;
21876;SDS011;11103;43.788;23.710;2023-04-24T03:20:00;20.87;;;13.87;;
21876;SDS011;11103;43.788;23.710;2023-04-24T03:22:26;18.37;;;14.23;;
21876;SDS011;11103;43.788;23.710;2023-04-24T03:24:51;19.33;;;14.03;;
21876;SDS011;11103;43.788;23.710;2023-04-24T03:27:17;20.70;;;13.93;;
21876;SDS011;11103;43.788;23.710;2023-04-24T03:29:42;17.70;;;13.63;;
21876;SDS011;11103;43.788;23.710;2023-04-24T03:32:08;19.33;;;14.30;;
21876;SDS011;11103;43.788;23.710;2023-04-24T03:34:33;20.70;;;13.90;;
21876;SDS011;11103;43.788;23.710;2023-04-24T03:36:59;24.97;;;15.73;;
21876;SDS011;11103;43.788;23.710;2023-04-24T03:39:25;21.60;;;14.90;;
21876;SDS011;11103;43.788;23.710;2023-04-24T03:41:52;18.07;;;14.73;;
21876;SDS011;11103;43.788;23.710;2023-04-24T03:44:17;22.43;;;15.07;;
21876;SDS011;11103;43.788;23.710;2023-04-24T03:46:43;18.30;;;14.10;;
21876;SDS011;11103;43.788;23.710;2023-04-24T03:49:08;17.97;;;13.70;;
21876;SDS011;11103;43.788;23.710;2023-04-24T03:51:33;18.33;;;14.30;;
21876;SDS011;11103;43.788;23.710;2023-04-24T03:53:59;23.00;;;14.83;;
21876;SDS011;11103;43.788;23.710;2023-04-24T03:56:24;20.13;;;14.90;;
21876;SDS011;11103;43.788;23.710;2023-04-24T03:58:50;35.93;;;20.57;;
21876;SDS011;11103;43.788;23.710;2023-04-24T04:01:15;32.10;;;22.87;;
21876;SDS011;11103;43.788;23.710;2023-04-24T04:03:41;24.27;;;15.53;;
21876;SDS011;11103;43.788;23.710;2023-04-24T04:06:06;18.07;;;14.80;;
21876;SDS011;11103;43.788;23.710;2023-04-24T04:08:32;20.80;;;13.87;;
21876;SDS011;11103;43.788;23.710;2023-04-24T04:10:57;21.23;;;14.43;;
21876;SDS011;11103;43.788;23.710;2023-04-24T04:13:23;24.63;;;14.87;;
21876;SDS011;11103;43.788;23.710;2023-04-24T04:15:48;23.90;;;15.07;;
21876;SDS011;11103;43.788;23.710;2023-04-24T04:18:13;21.90;;;15.17;;
21876;SDS011;11103;43.788;23.710;2023-04-24T04:20:39;18.03;;;14.37;;
21876;SDS011;11103;43.788;23.710;2023-04-24T04:23:04;22.17;;;15.47;;
21876;SDS011;11103;43.788;23.710;2023-04-24T04:25:30;22.73;;;13.43;;
21876;SDS011;11103;43.788;23.710;2023-04-24T04:27:55;14.30;;;12.47;;
21876;SDS011;11103;43.788;23.710;2023-04-24T04:30:23;16.17;;;12.60;;
21876;SDS011;11103;43.788;23.710;2023-04-24T04:32:48;14.80;;;12.83;;
21876;SDS011;11103;43.788;23.710;2023-04-24T04:35:13;16.20;;;12.33;;
21876;SDS011;11103;43.788;23.710;2023-04-24T04:37:39;17.90;;;12.47;;
21876;SDS011;11103;43.788;23.710;2023-04-24T04:40:05;18.57;;;12.40;;
21876;SDS011;11103;43.788;23.710;2023-04-24T04:42:31;14.33;;;11.87;;
21876;SDS011;11103;43.788;23.710;2023-04-24T04:44:59;15.00;;;11.83;;
21876;SDS011;11103;43.788;23.710;2023-04-24T04:47:25;16.03;;;11.80;;
21876;SDS011;11103;43.788;23.710;2023-04-24T04:49:52;16.43;;;12.23;;
21876;SDS011;11103;43.788;23.710;2023-04-24T04:52:18;21.17;;;12.17;;
21876;SDS011;11103;43.788;23.710;2023-04-24T04:54:43;18.77;;;13.20;;
21876;SDS011;11103;43.788;23.710;2023-04-24T04:57:10;16.20;;;12.20;;
21876;SDS011;11103;43.788;23.710;2023-04-24T04:59:35;17.33;;;12.20;;
21876;SDS011;11103;43.788;23.710;2023-04-24T05:02:01;15.70;;;12.27;;
21876;SDS011;11103;43.788;23.710;2023-04-24T05:04:26;16.40;;;12.37;;
21876;SDS011;11103;43.788;23.710;2023-04-24T05:06:52;15.63;;;12.20;;
21876;SDS011;11103;43.788;23.710;2023-04-24T05:09:17;15.70;;;11.87;;
21876;SDS011;11103;43.788;23.710;2023-04-24T05:11:43;15.23;;;12.37;;
21876;SDS011;11103;43.788;23.710;2023-04-24T05:14:09;21.10;;;13.60;;
21876;SDS011;11103;43.788;23.710;2023-04-24T05:16:34;19.77;;;13.93;;
21876;SDS011;11103;43.788;23.710;2023-04-24T05:19:02;24.03;;;14.07;;
21876;SDS011;11103;43.788;23.710;2023-04-24T05:21:27;28.30;;;15.40;;
21876;SDS011;11103;43.788;23.710;2023-04-24T05:23:52;19.50;;;14.43;;
21876;SDS011;11103;43.788;23.710;2023-04-24T05:26:18;21.77;;;14.93;;
21876;SDS011;11103;43.788;23.710;2023-04-24T05:28:44;20.47;;;15.63;;
21876;SDS011;11103;43.788;23.710;2023-04-24T05:31:09;24.10;;;15.33;;
21876;SDS011;11103;43.788;23.710;2023-04-24T05:33:35;21.20;;;15.03;;
21876;SDS011;11103;43.788;23.710;2023-04-24T05:36:00;19.50;;;14.33;;
21876;SDS011;11103;43.788;23.710;2023-04-24T05:38:26;17.83;;;13.87;;
21876;SDS011;11103;43.788;23.710;2023-04-24T05:40:51;19.37;;;14.27;;
21876;SDS011;11103;43.788;23.710;2023-04-24T05:43:16;17.60;;;14.10;;
21876;SDS011;11103;43.788;23.710;2023-04-24T05:45:42;18.60;;;14.20;;
21876;SDS011;11103;43.788;23.710;2023-04-24T05:48:07;20.70;;;12.87;;
21876;SDS011;11103;43.788;23.710;2023-04-24T05:50:33;20.20;;;12.70;;
21876;SDS011;11103;43.788;23.710;2023-04-24T05:52:58;17.60;;;13.20;;
21876;SDS011;11103;43.788;23.710;2023-04-24T05:55:24;18.50;;;13.87;;
21876;SDS011;11103;43.788;23.710;2023-04-24T05:57:50;18.23;;;13.30;;
21876;SDS011;11103;43.788;23.710;2023-04-24T06:00:16;16.77;;;13.40;;
21876;SDS011;11103;43.788;23.710;2023-04-24T06:02:43;19.90;;;13.33;;
21876;SDS011;11103;43.788;23.710;2023-04-24T06:05:09;18.33;;;13.90;;
21876;SDS011;11103;43.788;23.710;2023-04-24T06:07:34;17.10;;;13.20;;
21876;SDS011;11103;43.788;23.710;2023-04-24T06:10:00;21.13;;;13.23;;
21876;SDS011;11103;43.788;23.710;2023-04-24T06:12:25;18.90;;;13.13;;
21876;SDS011;11103;43.788;23.710;2023-04-24T06:14:51;16.93;;;13.30;;
21876;SDS011;11103;43.788;23.710;2023-04-24T06:17:16;18.00;;;13.33;;
21876;SDS011;11103;43.788;23.710;2023-04-24T06:19:43;22.33;;;13.87;;
21876;SDS011;11103;43.788;23.710;2023-04-24T06:22:08;20.53;;;13.97;;
21876;SDS011;11103;43.788;23.710;2023-04-24T06:24:34;15.63;;;13.07;;
21876;SDS011;11103;43.788;23.710;2023-04-24T06:26:59;19.47;;;13.43;;
21876;SDS011;11103;43.788;23.710;2023-04-24T06:29:26;16.03;;;12.73;;
21876;SDS011;11103;43.788;23.710;2023-04-24T06:31:52;17.70;;;13.53;;
21876;SDS011;11103;43.788;23.710;2023-04-24T06:34:18;17.90;;;14.67;;
21876;SDS011;11103;43.788;23.710;2023-04-24T06:36:43;20.03;;;14.07;;
21876;SDS011;11103;43.788;23.710;2023-04-24T06:39:08;18.13;;;14.37;;
21876;SDS011;11103;43.788;23.710;2023-04-24T06:41:34;19.30;;;13.77;;
21876;SDS011;11103;43.788;23.710;2023-04-24T06:43:59;20.30;;;14.33;;
21876;SDS011;11103;43.788;23.710;2023-04-24T06:46:25;16.33;;;13.53;;
21876;SDS011;11103;43.788;23.710;2023-04-24T06:48:52;19.23;;;13.80;;
21876;SDS011;11103;43.788;23.710;2023-04-24T06:51:21;15.07;;;13.30;;
21876;SDS011;11103;43.788;23.710;2023-04-24T06:53:54;17.87;;;14.37;;
21876;SDS011;11103;43.788;23.710;2023-04-24T06:56:21;19.40;;;14.30;;
21876;SDS011;11103;43.788;23.710;2023-04-24T06:58:46;16.23;;;13.73;;
21876;SDS011;11103;43.788;23.710;2023-04-24T07:01:12;18.90;;;14.53;;
21876;SDS011;11103;43.788;23.710;2023-04-24T07:03:37;17.67;;;13.90;;
21876;SDS011;11103;43.788;23.710;2023-04-24T07:06:03;19.33;;;13.73;;
21876;SDS011;11103;43.788;23.710;2023-04-24T07:08:29;16.83;;;14.23;;
21876;SDS011;11103;43.788;23.710;2023-04-24T07:10:58;18.97;;;13.90;;
21876;SDS011;11103;43.788;23.710;2023-04-24T07:13:23;22.07;;;14.30;;
21876;SDS011;11103;43.788;23.710;2023-04-24T07:15:49;21.20;;;14.63;;
21876;SDS011;11103;43.788;23.710;2023-04-24T07:18:16;16.73;;;14.13;;
21876;SDS011;11103;43.788;23.710;2023-04-24T07:20:42;17.20;;;13.53;;
21876;SDS011;11103;43.788;23.710;2023-04-24T07:23:07;15.23;;;13.20;;
21876;SDS011;11103;43.788;23.710;2023-04-24T07:25:33;19.23;;;13.53;;
21876;SDS011;11103;43.788;23.710;2023-04-24T07:27:58;17.43;;;13.60;;
21876;SDS011;11103;43.788;23.710;2023-04-24T07:30:24;16.87;;;13.63;;
21876;SDS011;11103;43.788;23.710;2023-04-24T07:32:49;16.10;;;13.33;;
21876;SDS011;11103;43.788;23.710;2023-04-24T07:35:15;16.57;;;13.23;;
21876;SDS011;11103;43.788;23.710;2023-04-24T07:37:40;16.30;;;13.97;;
21876;SDS011;11103;43.788;23.710;2023-04-24T07:40:10;19.77;;;12.80;;
21876;SDS011;11103;43.788;23.710;2023-04-24T07:42:37;19.23;;;13.27;;
21876;SDS011;11103;43.788;23.710;2023-04-24T07:45:03;17.07;;;12.83;;
21876;SDS011;11103;43.788;23.710;2023-04-24T07:47:29;16.30;;;13.27;;
21876;SDS011;11103;43.788;23.710;2023-04-24T07:49:55;19.10;;;13.63;;
21876;SDS011;11103;43.788;23.710;2023-04-24T07:52:21;17.17;;;13.00;;
21876;SDS011;11103;43.788;23.710;2023-04-24T07:54:46;18.77;;;14.33;;
21876;SDS011;11103;43.788;23.710;2023-04-24T07:57:12;17.37;;;13.57;;
21876;SDS011;11103;43.788;23.710;2023-04-24T07:59:37;20.73;;;12.73;;
21876;SDS011;11103;43.788;23.710;2023-04-24T08:02:02;18.40;;;13.80;;
21876;SDS011;11103;43.788;23.710;2023-04-24T08:04:28;15.40;;;12.23;;
21876;SDS011;11103;43.788;23.710;2023-04-24T08:06:53;16.67;;;13.53;;
21876;SDS011;11103;43.788;23.710;2023-04-24T08:09:19;17.90;;;12.60;;
21876;SDS011;11103;43.788;23.710;2023-04-24T08:11:45;18.20;;;13.90;;
21876;SDS011;11103;43.788;23.710;2023-04-24T08:14:10;18.50;;;14.00;;
21876;SDS011;11103;43.788;23.710;2023-04-24T08:16:38;16.40;;;12.87;;
21876;SDS011;11103;43.788;23.710;2023-04-24T08:19:03;16.13;;;13.17;;
21876;SDS011;11103;43.788;23.710;2023-04-24T08:21:28;18.03;;;14.03;;
21876;SDS011;11103;43.788;23.710;2023-04-24T08:23:54;17.50;;;14.53;;
21876;SDS011;11103;43.788;23.710;2023-04-24T08:26:19;20.70;;;13.50;;
21876;SDS011;11103;43.788;23.710;2023-04-24T08:28:45;20.73;;;14.03;;
21876;SDS011;11103;43.788;23.710;2023-04-24T08:31:10;19.03;;;14.10;;
21876;SDS011;11103;43.788;23.710;2023-04-24T08:33:35;14.23;;;12.73;;
21876;SDS011;11103;43.788;23.710;2023-04-24T08:36:05;19.83;;;12.50;;
21876;SDS011;11103;43.788;23.710;2023-04-24T08:38:30;18.07;;;13.73;;
21876;SDS011;11103;43.788;23.710;2023-04-24T08:40:57;16.73;;;13.47;;
21876;SDS011;11103;43.788;23.710;2023-04-24T08:43:23;19.13;;;12.97;;
21876;SDS011;11103;43.788;23.710;2023-04-24T08:45:51;14.90;;;12.80;;
21876;SDS011;11103;43.788;23.710;2023-04-24T08:48:17;16.37;;;12.47;;
21876;SDS011;11103;43.788;23.710;2023-04-24T08:50:43;15.67;;;12.07;;
21876;SDS011;11103;43.788;23.710;2023-04-24T08:53:09;20.40;;;13.07;;
21876;SDS011;11103;43.788;23.710;2023-04-24T08:55:36;19.43;;;13.30;;
21876;SDS011;11103;43.788;23.710;2023-04-24T08:58:03;18.90;;;14.83;;
21876;SDS011;11103;43.788;23.710;2023-04-24T09:00:29;18.43;;;14.60;;
21876;SDS011;11103;43.788;23.710;2023-04-24T09:02:55;17.00;;;12.93;;
21876;SDS011;11103;43.788;23.710;2023-04-24T09:05:21;17.63;;;12.07;;
21876;SDS011;11103;43.788;23.710;2023-04-24T09:07:55;17.50;;;13.27;;
21876;SDS011;11103;43.788;23.710;2023-04-24T09:10:22;17.17;;;13.40;;
21876;SDS011;11103;43.788;23.710;2023-04-24T09:12:52;20.47;;;14.37;;
21876;SDS011;11103;43.788;23.710;2023-04-24T09:15:19;20.30;;;13.77;;
21876;SDS011;11103;43.788;23.710;2023-04-24T09:17:45;15.63;;;13.53;;
21876;SDS011;11103;43.788;23.710;2023-04-24T09:20:11;17.53;;;12.17;;
21876;SDS011;11103;43.788;23.710;2023-04-24T09:22:37;14.60;;;11.30;;
21876;SDS011;11103;43.788;23.710;2023-04-24T09:25:03;21.77;;;14.40;;
21876;SDS011;11103;43.788;23.710;2023-04-24T09:27:32;14.67;;;12.77;;
21876;SDS011;11103;43.788;23.710;2023-04-24T09:30:00;16.00;;;11.53;;
21876;SDS011;11103;43.788;23.710;2023-04-24T09:32:27;14.17;;;11.20;;
21876;SDS011;11103;43.788;23.710;2023-04-24T09:37:37;12.00;;;10.37;;
21876;SDS011;11103;43.788;23.710;2023-04-24T09:40:13;14.83;;;11.30;;
21876;SDS011;11103;43.788;23.710;2023-04-24T09:43:01;17.03;;;12.07;;
21876;SDS011;11103;43.788;23.710;2023-04-24T09:45:28;12.57;;;9.37;;
21876;SDS011;11103;43.788;23.710;2023-04-24T09:47:59;11.73;;;10.30;;
21876;SDS011;11103;43.788;23.710;2023-04-24T09:50:25;16.07;;;10.73;;
21876;SDS011;11103;43.788;23.710;2023-04-24T09:52:57;12.57;;;10.13;;
21876;SDS011;11103;43.788;23.710;2023-04-24T09:55:24;12.43;;;9.93;;
21876;SDS011;11103;43.788;23.710;2023-04-24T09:57:51;19.80;;;9.80;;
21876;SDS011;11103;43.788;23.710;2023-04-24T10:00:21;12.93;;;9.13;;
21876;SDS011;11103;43.788;23.710;2023-04-24T10:02:50;14.37;;;8.97;;
21876;SDS011;11103;43.788;23.710;2023-04-24T10:05:22;12.80;;;8.83;;
21876;SDS011;11103;43.788;23.710;2023-04-24T10:07:48;11.47;;;9.30;;
21876;SDS011;11103;43.788;23.710;2023-04-24T10:10:13;13.97;;;8.80;;
21876;SDS011;11103;43.788;23.710;2023-04-24T10:12:40;11.87;;;9.60;;
21876;SDS011;11103;43.788;23.710;2023-04-24T10:15:06;15.40;;;9.60;;
21876;SDS011;11103;43.788;23.710;2023-04-24T10:17:32;13.83;;;9.60;;
21876;SDS011;11103;43.788;23.710;2023-04-24T10:19:59;12.20;;;9.50;;
21876;SDS011;11103;43.788;23.710;2023-04-24T10:22:26;10.23;;;9.00;;
21876;SDS011;11103;43.788;23.710;2023-04-24T10:24:54;11.43;;;10.20;;
21876;SDS011;11103;43.788;23.710;2023-04-24T10:27:21;11.00;;;8.97;;
21876;SDS011;11103;43.788;23.710;2023-04-24T10:29:48;11.17;;;9.17;;
21876;SDS011;11103;43.788;23.710;2023-04-24T10:32:16;9.50;;;8.60;;
21876;SDS011;11103;43.788;23.710;2023-04-24T10:34:42;13.40;;;9.37;;
21876;SDS011;11103;43.788;23.710;2023-04-24T10:37:07;10.63;;;8.40;;
21876;SDS011;11103;43.788;23.710;2023-04-24T10:39:33;13.43;;;8.93;;
21876;SDS011;11103;43.788;23.710;2023-04-24T10:41:58;10.57;;;9.50;;
21876;SDS011;11103;43.788;23.710;2023-04-24T10:44:24;18.50;;;12.63;;
21876;SDS011;11103;43.788;23.710;2023-04-24T10:46:52;20.17;;;14.73;;
21876;SDS011;11103;43.788;23.710;2023-04-24T10:49:29;18.47;;;13.60;;
21876;SDS011;11103;43.788;23.710;2023-04-24T10:51:59;14.30;;;10.87;;
21876;SDS011;11103;43.788;23.710;2023-04-24T10:54:35;14.97;;;12.40;;
21876;SDS011;11103;43.788;23.710;2023-04-24T10:59:45;13.43;;;10.67;;
21876;SDS011;11103;43.788;23.710;2023-04-24T11:02:15;12.87;;;10.43;;
21876;SDS011;11103;43.788;23.710;2023-04-24T11:04:42;14.97;;;10.67;;
21876;SDS011;11103;43.788;23.710;2023-04-24T11:07:11;11.80;;;10.20;;
21876;SDS011;11103;43.788;23.710;2023-04-24T11:09:37;12.77;;;10.27;;
21876;SDS011;11103;43.788;23.710;2023-04-24T11:12:06;12.33;;;10.13;;
21876;SDS011;11103;43.788;23.710;2023-04-24T11:17:30;12.07;;;10.10;;
21876;SDS011;11103;43.788;23.710;2023-04-24T11:20:05;9.10;;;8.20;;
21876;SDS011;11103;43.788;23.710;2023-04-24T11:22:35;12.37;;;8.10;;
21876;SDS011;11103;43.788;23.710;2023-04-24T11:25:02;11.47;;;7.03;;
21876;SDS011;11103;43.788;23.710;2023-04-24T11:27:29;10.67;;;8.10;;
21876;SDS011;11103;43.788;23.710;2023-04-24T11:32:36;8.63;;;7.23;;
21876;SDS011;11103;43.788;23.710;2023-04-24T11:37:46;11.23;;;7.37;;
21876;SDS011;11103;43.788;23.710;2023-04-24T11:40:17;23.23;;;14.20;;
21876;SDS011;11103;43.788;23.710;2023-04-24T11:42:48;25.77;;;15.07;;
21876;SDS011;11103;43.788;23.710;2023-04-24T11:47:46;12.67;;;10.30;;
21876;SDS011;11103;43.788;23.710;2023-04-24T11:50:12;12.53;;;8.03;;
21876;SDS011;11103;43.788;23.710;2023-04-24T11:52:40;9.80;;;6.97;;
21876;SDS011;11103;43.788;23.710;2023-04-24T11:55:06;11.57;;;7.13;;
21876;SDS011;11103;43.788;23.710;2023-04-24T11:57:51;9.07;;;8.17;;
21876;SDS011;11103;43.788;23.710;2023-04-24T12:00:20;14.03;;;8.80;;
21876;SDS011;11103;43.788;23.710;2023-04-24T12:02:47;11.80;;;7.87;;
21876;SDS011;11103;43.788;23.710;2023-04-24T12:05:23;15.97;;;12.90;;
21876;SDS011;11103;43.788;23.710;2023-04-24T12:07:50;13.90;;;8.03;;
21876;SDS011;11103;43.788;23.710;2023-04-24T12:10:20;12.23;;;8.53;;
21876;SDS011;11103;43.788;23.710;2023-04-24T12:12:46;12.43;;;8.80;;
21876;SDS011;11103;43.788;23.710;2023-04-24T12:15:15;10.23;;;8.40;;
21876;SDS011;11103;43.788;23.710;2023-04-24T12:17:42;10.90;;;8.00;;
21876;SDS011;11103;43.788;23.710;2023-04-24T12:20:08;9.70;;;7.80;;
21876;SDS011;11103;43.788;23.710;2023-04-24T12:22:44;10.50;;;8.10;;
21876;SDS011;11103;43.788;23.710;2023-04-24T12:25:18;9.30;;;8.40;;
21876;SDS011;11103;43.788;23.710;2023-04-24T12:27:45;10.70;;;7.80;;
21876;SDS011;11103;43.788;23.710;2023-04-24T12:30:15;10.97;;;6.97;;
21876;SDS011;11103;43.788;23.710;2023-04-24T12:32:42;12.57;;;8.23;;
21876;SDS011;11103;43.788;23.710;2023-04-24T12:35:08;10.10;;;7.50;;
21876;SDS011;11103;43.788;23.710;2023-04-24T12:37:34;11.27;;;8.10;;
21876;SDS011;11103;43.788;23.710;2023-04-24T12:40:02;11.03;;;7.30;;
21876;SDS011;11103;43.788;23.710;2023-04-24T12:42:32;11.90;;;8.00;;
21876;SDS011;11103;43.788;23.710;2023-04-24T12:45:00;10.83;;;7.93;;
21876;SDS011;11103;43.788;23.710;2023-04-24T12:47:28;8.13;;;7.33;;
21876;SDS011;11103;43.788;23.710;2023-04-24T12:49:54;9.90;;;7.40;;
21876;SDS011;11103;43.788;23.710;2023-04-24T12:52:23;11.67;;;7.07;;
21876;SDS011;11103;43.788;23.710;2023-04-24T12:54:52;18.30;;;13.80;;
21876;SDS011;11103;43.788;23.710;2023-04-24T12:57:18;29.50;;;17.47;;
21876;SDS011;11103;43.788;23.710;2023-04-24T12:59:44;12.40;;;9.17;;
21876;SDS011;11103;43.788;23.710;2023-04-24T13:02:09;13.90;;;8.77;;
21876;SDS011;11103;43.788;23.710;2023-04-24T13:04:35;11.00;;;6.93;;
21876;SDS011;11103;43.788;23.710;2023-04-24T13:07:01;7.10;;;6.40;;
21876;SDS011;11103;43.788;23.710;2023-04-24T13:09:27;9.70;;;6.60;;
21876;SDS011;11103;43.788;23.710;2023-04-24T13:11:52;11.13;;;6.60;;
21876;SDS011;11103;43.788;23.710;2023-04-24T13:14:17;9.40;;;7.17;;
21876;SDS011;11103;43.788;23.710;2023-04-24T13:16:43;9.00;;;6.20;;
21876;SDS011;11103;43.788;23.710;2023-04-24T13:19:08;12.53;;;7.03;;
21876;SDS011;11103;43.788;23.710;2023-04-24T13:21:34;13.67;;;6.27;;
21876;SDS011;11103;43.788;23.710;2023-04-24T13:23:59;8.50;;;6.00;;
21876;SDS011;11103;43.788;23.710;2023-04-24T13:26:25;8.20;;;5.90;;
21876;SDS011;11103;43.788;23.710;2023-04-24T13:28:50;10.07;;;6.60;;
21876;SDS011;11103;43.788;23.710;2023-04-24T13:31:16;10.27;;;6.03;;
21876;SDS011;11103;43.788;23.710;2023-04-24T13:33:41;11.80;;;5.97;;
21876;SDS011;11103;43.788;23.710;2023-04-24T13:36:07;9.30;;;6.53;;
21876;SDS011;11103;43.788;23.710;2023-04-24T13:38:33;9.70;;;6.17;;
21876;SDS011;11103;43.788;23.710;2023-04-24T13:40:59;8.43;;;5.90;;
21876;SDS011;11103;43.788;23.710;2023-04-24T13:43:25;10.47;;;6.00;;
21876;SDS011;11103;43.788;23.710;2023-04-24T13:45:50;14.67;;;6.80;;
21876;SDS011;11103;43.788;23.710;2023-04-24T13:48:15;8.70;;;5.80;;
21876;SDS011;11103;43.788;23.710;2023-04-24T13:50:41;10.03;;;5.80;;
21876;SDS011;11103;43.788;23.710;2023-04-24T13:53:07;6.77;;;5.73;;
21876;SDS011;11103;43.788;23.710;2023-04-24T13:55:33;8.00;;;6.03;;
21876;SDS011;11103;43.788;23.710;2023-04-24T13:57:58;8.70;;;5.80;;
21876;SDS011;11103;43.788;23.710;2023-04-24T14:00:24;8.43;;;5.60;;
21876;SDS011;11103;43.788;23.710;2023-04-24T14:02:49;6.97;;;5.93;;
21876;SDS011;11103;43.788;23.710;2023-04-24T14:05:15;8.80;;;5.53;;
21876;SDS011;11103;43.788;23.710;2023-04-24T14:07:41;8.23;;;5.60;;
21876;SDS011;11103;43.788;23.710;2023-04-24T14:10:06;8.27;;;5.63;;
21876;SDS011;11103;43.788;23.710;2023-04-24T14:12:33;6.40;;;5.80;;
21876;SDS011;11103;43.788;23.710;2023-04-24T14:14:58;8.33;;;5.63;;
21876;SDS011;11103;43.788;23.710;2023-04-24T14:17:24;8.77;;;5.40;;
21876;SDS011;11103;43.788;23.710;2023-04-24T14:19:50;12.40;;;5.70;;
21876;SDS011;11103;43.788;23.710;2023-04-24T14:22:17;10.00;;;5.70;;
21876;SDS011;11103;43.788;23.710;2023-04-24T14:24:42;8.50;;;6.23;;